Flight Track Log - Related Links

Times and Time Zones

All times are in EDT time to prevent confusion due to time zone crossing. See the UAL41 flight status page for this flight to view local times or setup timezone preferences in your user account.

Time Position Orientation Groundspeed Altitude Reporting Facility
EDT Latitude Longitude Course Direction KTS MPH feet Rate Location/Type
Fri 04:03:37 AM 50.8970 4.4410 250° West 161 185 1,700  Level FlightAware ADS-B
Fri 04:03:52 AM 50.8950 4.4240 259° West 168 193 2,300 2,550 Climbing FlightAware ADS-B
Fri 04:04:17 AM 50.9020 4.3940 290° West 168 193 3,400 1,745 Climbing FlightAware ADS-B
Fri 04:04:47 AM 50.9120 4.3580 294° West 208 239 3,900 1,745 Climbing FlightAware ADS-B
Fri 04:05:12 AM 50.9220 4.3200 293° West 219 252 5,000 2,400 Climbing FlightAware ADS-B
Fri 04:05:42 AM 50.9340 4.2730 292° West 234 269 6,100 2,291 Climbing FlightAware ADS-B
Fri 04:06:07 AM 50.9530 4.2360 309° West 251 289 7,100 2,945 Climbing FlightAware ADS-B
Fri 04:06:37 AM 50.9750 4.1920 308° West 253 291 8,800 2,914 Climbing FlightAware ADS-B
Fri 04:07:17 AM 51.0050 4.1330 309° West 264 304 10,500 2,240 Climbing FlightAware ADS-B
Fri 04:07:52 AM 51.0320 4.0780 308° West 291 335 11,600 455 Climbing FlightAware ADS-B
Fri 04:08:23 AM 51.0618 4.0184 308° West 1 1 11,000 1,920 Descending FlightAware UK
Fri 04:08:42 AM 51.0760 3.9870 308° West 331 381 13,200 1,875 Climbing FlightAware ADS-B
Fri 04:09:11 AM 51.1072 3.9208 308° West 376 433 12,500 1,371 Descending FlightAware UK
Fri 04:09:17 AM 51.1050 3.9270 308° West 343 395 14,000 1,500 Climbing FlightAware ADS-B
Fri 04:09:35 AM 51.1326 3.8682 308° West 400 460 13,100 2,400 Descending FlightAware UK
Fri 04:10:07 AM 51.1700 3.7970 308° West 391 450 16,000 3,761 Climbing FlightAware ADS-B
Fri 04:10:42 AM 51.2060 3.7250 309° West 398 458 17,300 2,291 Climbing FlightAware ADS-B
Fri 04:11:02 AM 51.2230 3.6710 297° West 396 456 18,100 511 Climbing FlightAware ADS-B
Fri 04:11:29 AM 51.2429 3.5904 297° West 432 497 17,700 1,867 Descending FlightAware UK
Fri 04:11:47 AM 51.2500 3.5690 297° West 404 465 19,500 3,621 Climbing FlightAware ADS-B
Fri 04:12:27 AM 51.2830 3.4450 293° West 412 474 21,200 1,308 Climbing FlightAware ADS-B
Fri 04:13:05 AM 51.3128 3.3227 293° West 454 522 21,200 2,133 Level FlightAware UK
Fri 04:13:12 AM 51.3150 3.3190 293° West 418 481 22,800 2,000 Climbing FlightAware ADS-B
Fri 04:13:29 AM 51.3298 3.2536 293° West 460 529 22,000 1,950 Descending FlightAware UK
Fri 04:13:52 AM 51.3450 3.2030 293° West 424 488 24,100 2,857 Climbing FlightAware ADS-B
Fri 04:14:32 AM 51.3740 3.0890 292° West 431 496 25,000 1,482 Climbing FlightAware ADS-B
Fri 04:15:17 AM 51.4140 2.9550 296° West 435 501 26,200 1,037 Climbing FlightAware ADS-B
Fri 04:15:53 AM 51.4564 2.8454 296° West 472 543 26,400 2,550 Climbing FlightAware UK
Fri 04:15:57 AM 51.4570 2.8490 296° West 427 491 27,900 2,000 Climbing FlightAware ADS-B
Fri 04:16:17 AM 51.4818 2.7817 296° West 468 539 27,200 1,800 Descending FlightAware UK
Fri 04:16:37 AM 51.4980 2.7470 296° West 424 488 29,100 2,954 Climbing FlightAware ADS-B
Fri 04:17:22 AM 51.5470 2.6240 303° West 423 487 30,400 1,553 Climbing FlightAware ADS-B
Fri 04:18:02 AM 51.5890 2.5180 303° West 426 490 31,300 1,129 Climbing FlightAware ADS-B
Fri 04:18:47 AM 51.6370 2.3960 302° West 435 501 32,000 -794 Climbing FlightAware ADS-B
Fri 04:19:10 AM 51.6567 2.3089 302° West 472 543 30,400  Descending FlightAware UK
Fri 04:19:22 AM 51.6620 2.2870 302° West 436 502 32,000  Climbing FlightAware ADS-B
Fri 04:19:46 AM 51.6602 2.1930 302° West 478 550 30,400 -2,286 Descending FlightAware UK
Fri 04:20:04 AM 51.6586 2.1354 267° West 480 552 30,400 4,571 Level FlightAware UK
Fri 04:20:07 AM 51.6620 2.1400 267° West 438 504 32,000  Climbing FlightAware ADS-B
Fri 04:20:22 AM 51.6574 2.0770 267° West 484 557 30,400 -2,308 Descending FlightAware UK
Fri 04:20:46 AM 51.6545 1.9984 267° West 488 562 30,500 3,200 Climbing FlightAware UK
Fri 04:20:52 AM 51.6570 1.9920 267° West 442 509 32,000  Climbing FlightAware ADS-B
Fri 04:21:22 AM 51.6501 1.8797 267° West 488 562 30,500  Descending FlightAware UK
Fri 04:21:34 AM 51.6515 1.8404 267° West 444 511 32,000  Climbing FlightAware ADS-B
Fri 04:21:52 AM 51.6462 1.7809 267° West 488 562 30,500  Descending FlightAware UK
Fri 04:22:08 AM 51.6474 1.7300 267° West 445 512 32,000 1,525 Climbing FlightAware ADS-B
Fri 04:22:51 AM 51.6417 1.5862 266° West 445 512 32,000 -1,452 Level FlightAware ADS-B
Fri 04:23:10 AM 51.6358 1.5242 266° West 488 562 30,500  Descending FlightAware UK
Fri 04:23:29 AM 51.6364 1.4619 266° West 445 512 32,000  Climbing FlightAware ADS-B
Fri 04:23:46 AM 51.6306 1.4065 266° West 488 562 30,500  Descending FlightAware UK
Fri 04:24:04 AM 51.6318 1.3479 266° West 445 512 32,000 1,837 Climbing FlightAware ADS-B
Fri 04:24:35 AM 51.6276 1.2463 266° West 445 512 32,000 -1,875 Level FlightAware ADS-B
Fri 04:24:52 AM 51.6216 1.1899 266° West 492 566 30,500  Descending FlightAware UK
Fri 04:25:05 AM 51.6235 1.1464 266° West 444 511 32,000  Climbing FlightAware ADS-B
Fri 04:25:28 AM 51.6165 1.0718 266° West 492 566 30,500  Descending FlightAware UK
Fri 04:25:36 AM 51.6191 1.0465 266° West 442 509 32,000  Climbing FlightAware ADS-B
Fri 04:25:52 AM 51.6130 0.9933 266° West 492 566 30,500  Descending FlightAware UK
Fri 04:26:09 AM 51.6143 0.9370 266° West 440 506 32,000  Climbing FlightAware ADS-B
Fri 04:26:28 AM 51.6076 0.8763 266° West 490 564 30,500  Descending FlightAware UK
Fri 04:26:40 AM 51.6096 0.8374 266° West 438 504 32,000 2,143 Climbing FlightAware ADS-B
Fri 04:27:10 AM 51.6050 0.7399 266° West 437 503 32,000  Level FlightAware ADS-B
Fri 04:27:40 AM 51.6004 0.6427 266° West 436 502 32,000 -1,875 Level FlightAware ADS-B
Fri 04:27:58 AM 51.5938 0.5861 266° West 488 562 30,500  Descending FlightAware UK
Fri 04:28:10 AM 51.5957 0.5453 266° West 435 501 32,000  Climbing FlightAware ADS-B
Fri 04:28:34 AM 51.5881 0.4703 266° West 486 559 30,500  Descending FlightAware UK
Fri 04:28:41 AM 51.5907 0.4469 266° West 434 499 32,000  Climbing FlightAware ADS-B
Fri 04:29:09 AM 51.5822 0.3553 266° West 486 559 30,500  Descending FlightAware UK
Fri 04:29:17 AM 51.5849 0.3326 266° West 435 501 32,000  Climbing FlightAware ADS-B
Fri 04:29:39 AM 51.5773 0.2595 266° West 486 559 30,500  Descending FlightAware UK
Fri 04:29:48 AM 51.5798 0.2303 266° West 435 501 32,000  Climbing FlightAware ADS-B
Fri 04:30:09 AM 51.5723 0.1629 266° West 486 559 30,500  Descending FlightAware UK
Fri 04:30:18 AM 51.5748 0.1337 266° West 437 503 32,000 3,103 Climbing FlightAware ADS-B
Fri 04:30:38 AM 51.5728 0.0692 267° West 436 502 32,000 -2,462 Level FlightAware ADS-B
Fri 04:30:57 AM 51.5695 0.0084 267° West 488 562 30,400  Descending FlightAware UK
Fri 04:31:04 AM 51.5743 -0.0127 267° West 435 501 32,000 2,595 Climbing FlightAware ADS-B
Fri 04:31:34 AM 51.5814 -0.1107 277° West 435 501 32,000  Level FlightAware ADS-B
Fri 04:32:06 AM 51.5884 -0.2122 276° West 435 501 32,000  Level FlightAware ADS-B
Fri 04:32:36 AM 51.5954 -0.3085 277° West 435 501 32,000 -2,000 Level FlightAware ADS-B
Fri 04:32:51 AM 51.5949 -0.3562 277° West 484 557 30,500  Descending FlightAware UK
Fri 04:33:06 AM 51.6026 -0.4056 277° West 436 502 32,000  Climbing FlightAware ADS-B
Fri 04:33:21 AM 51.6022 -0.4523 277° West 488 562 30,500  Descending FlightAware UK
Fri 04:33:40 AM 51.6106 -0.5141 277° West 437 503 32,000  Climbing FlightAware ADS-B
Fri 04:33:57 AM 51.6107 -0.5682 277° West 486 559 30,500  Descending FlightAware UK
Fri 04:34:10 AM 51.6178 -0.6113 277° West 437 503 32,000  Climbing FlightAware ADS-B
Fri 04:34:27 AM 51.6179 -0.6643 277° West 484 557 30,500  Descending FlightAware UK
Fri 04:34:40 AM 51.6248 -0.7086 277° West 438 504 32,000 2,093 Climbing FlightAware ADS-B
Fri 04:35:10 AM 51.6318 -0.8053 277° West 440 506 32,000 -1,957 Level FlightAware ADS-B
Fri 04:35:26 AM 51.6320 -0.8578 277° West 486 559 30,500  Descending FlightAware UK
Fri 04:35:42 AM 51.6389 -0.9068 277° West 441 507 32,000  Climbing FlightAware ADS-B
Fri 04:36:02 AM 51.6401 -0.9750 277° West 486 559 30,500  Descending FlightAware UK
Fri 04:36:12 AM 51.6459 -1.0059 277° West 443 510 32,000  Climbing FlightAware ADS-B
Fri 04:36:32 AM 51.6470 -1.0730 277° West 492 566 30,500  Descending FlightAware UK
Fri 04:36:43 AM 51.6528 -1.1066 277° West 443 510 32,000 2,143 Climbing FlightAware ADS-B
Fri 04:37:14 AM 51.6595 -1.2061 276° West 442 509 32,000 -1,837 Level FlightAware ADS-B
Fri 04:37:32 AM 51.6603 -1.2684 276° West 490 564 30,500  Descending FlightAware UK
Fri 04:37:44 AM 51.6660 -1.3060 276° West 441 507 32,000  Climbing FlightAware ADS-B
Fri 04:38:02 AM 51.6667 -1.3661 276° West 490 564 30,500  Descending FlightAware UK
Fri 04:38:14 AM 51.6725 -1.4043 276° West 440 506 32,000  Climbing FlightAware ADS-B
Fri 04:38:38 AM 51.6745 -1.4825 276° West 490 564 30,500  Descending FlightAware UK
Fri 04:38:46 AM 51.6792 -1.5064 276° West 439 505 32,000  Climbing FlightAware ADS-B
Fri 04:39:02 AM 51.6796 -1.5604 276° West 490 564 30,500  Descending FlightAware UK
Fri 04:39:16 AM 51.6855 -1.6048 276° West 439 505 32,000  Climbing FlightAware ADS-B
Fri 04:39:38 AM 51.6870 -1.6766 276° West 488 562 30,500  Descending FlightAware UK
Fri 04:39:46 AM 51.6915 -1.7030 276° West 439 505 32,000  Climbing FlightAware ADS-B
Fri 04:40:02 AM 51.6918 -1.7551 276° West 488 562 30,500  Descending FlightAware UK
Fri 04:40:18 AM 51.6977 -1.8055 276° West 439 505 32,000  Climbing FlightAware ADS-B
Fri 04:40:38 AM 51.6990 -1.8713 276° West 490 564 30,500  Descending FlightAware UK
Fri 04:40:48 AM 51.7039 -1.9044 276° West 438 504 32,000 1,957 Climbing FlightAware ADS-B
Fri 04:41:24 AM 51.7110 -2.0185 276° West 437 503 32,000  Level FlightAware ADS-B
Fri 04:41:55 AM 51.7175 -2.1189 276° West 438 504 32,000 -1,800 Level FlightAware ADS-B
Fri 04:42:14 AM 51.7199 -2.1815 276° West 486 559 30,500  Descending FlightAware UK
Fri 04:42:26 AM 51.7261 -2.2187 276° West 440 506 32,000  Climbing FlightAware ADS-B
Fri 04:42:49 AM 51.7314 -2.2972 276° West 486 559 30,500  Descending FlightAware UK
Fri 04:42:56 AM 51.7360 -2.3177 276° West 441 507 32,000  Climbing FlightAware ADS-B
Fri 04:43:19 AM 51.7417 -2.3943 276° West 488 562 30,500  Descending FlightAware UK
Fri 04:43:27 AM 51.7465 -2.4174 276° West 441 507 32,000  Climbing FlightAware ADS-B
Fri 04:43:43 AM 51.7502 -2.4720 276° West 488 562 30,500  Descending FlightAware UK
Fri 04:43:59 AM 51.7575 -2.5194 276° West 442 509 32,000  Climbing FlightAware ADS-B
Fri 04:44:19 AM 51.7630 -2.5885 276° West 488 562 30,500  Descending FlightAware UK
Fri 04:44:30 AM 51.7684 -2.6195 276° West 441 507 32,000  Climbing FlightAware ADS-B
Fri 04:44:49 AM 51.7735 -2.6849 276° West 486 559 30,500  Descending FlightAware UK
Fri 04:45:00 AM 51.7788 -2.7193 276° West 441 507 32,000  Climbing FlightAware ADS-B
Fri 04:45:19 AM 51.7837 -2.7822 276° West 486 559 30,500  Descending FlightAware UK
Fri 04:45:32 AM 51.7894 -2.8216 276° West 442 509 32,000  Climbing FlightAware ADS-B
Fri 04:45:49 AM 51.7937 -2.8796 276° West 486 559 30,500  Descending FlightAware UK
Fri 04:46:05 AM 51.8003 -2.9301 276° West 443 510 32,000  Climbing FlightAware ADS-B
Fri 04:46:31 AM 51.8077 -3.0163 276° West 486 559 30,500  Descending FlightAware UK
Fri 04:46:47 AM 51.8130 -3.0600 276° West 443 510 32,000  Climbing FlightAware ADS-B
Fri 04:47:07 AM 51.8195 -3.1331 276° West 492 566 30,500 -2,368 Descending FlightAware UK
Fri 04:47:25 AM 51.8255 -3.1919 279° West 490 564 30,500 4,500 Level FlightAware UK
Fri 04:47:27 AM 51.8270 -3.1910 279° West 442 509 32,000  Climbing FlightAware ADS-B
Fri 04:47:49 AM 51.8333 -3.2695 279° West 488 562 30,500  Descending FlightAware UK
Fri 04:48:12 AM 51.8400 -3.3340 279° West 441 507 32,000  Climbing FlightAware ADS-B
Fri 04:48:43 AM 51.8501 -3.4452 279° West 486 559 30,500  Descending FlightAware UK
Fri 04:48:52 AM 51.8520 -3.4570 279° West 443 510 32,000  Climbing FlightAware ADS-B
Fri 04:49:07 AM 51.8578 -3.5236 279° West 486 559 30,500 -2,727 Descending FlightAware UK
Fri 04:49:25 AM 51.8635 -3.5819 279° West 488 562 30,500 3,600 Level FlightAware UK
Fri 04:49:32 AM 51.8650 -3.5960 279° West 445 512 32,000  Climbing FlightAware ADS-B
Fri 04:50:01 AM 51.8749 -3.7003 279° West 486 559 30,500  Descending FlightAware UK
Fri 04:50:17 AM 51.8800 -3.7470 279° West 447 514 32,000  Climbing FlightAware ADS-B
Fri 04:50:43 AM 51.8881 -3.8391 279° West 488 562 30,500  Descending FlightAware UK
Fri 04:50:57 AM 51.8920 -3.8750 279° West 449 517 32,000  Climbing FlightAware ADS-B
Fri 04:51:31 AM 51.9029 -3.9987 279° West 492 566 30,500  Descending FlightAware UK
Fri 04:51:37 AM 51.9030 -4.0060 279° West 447 514 32,000  Climbing FlightAware ADS-B
Fri 04:51:55 AM 51.9102 -4.0782 279° West 492 566 30,500  Descending FlightAware UK
Fri 04:52:17 AM 51.9140 -4.1250 279° West 447 514 32,000  Climbing FlightAware ADS-B
Fri 04:52:37 AM 51.9286 -4.2154 279° West 488 562 30,500 -2,432 Descending FlightAware UK
Fri 04:52:54 AM 51.9377 -4.2733 284° West 488 562 30,500 4,500 Level FlightAware UK
Fri 04:52:57 AM 51.9350 -4.2620 284° West 450 518 32,000  Climbing FlightAware ADS-B
Fri 04:53:18 AM 51.9494 -4.3519 284° West 490 564 30,500 -2,308 Descending FlightAware UK
Fri 04:53:36 AM 51.9580 -4.4109 283° West 490 564 30,500 4,737 Level FlightAware UK
Fri 04:53:37 AM 51.9550 -4.3970 283° West 449 517 32,000  Climbing FlightAware ADS-B
Fri 04:53:54 AM 51.9667 -4.4697 283° West 494 568 30,500 -1,915 Descending FlightAware UK
Fri 04:54:24 AM 51.9817 -4.5676 284° West 492 566 30,500 2,727 Level FlightAware UK
Fri 04:54:27 AM 51.9800 -4.5620 284° West 446 513 32,000  Climbing FlightAware ADS-B
Fri 04:54:42 AM 51.9907 -4.6261 284° West 490 564 30,500 -2,727 Descending FlightAware UK
Fri 04:55:00 AM 51.9997 -4.6846 284° West 488 562 30,500 3,000 Level FlightAware UK
Fri 04:55:12 AM 52.0010 -4.7030 284° West 447 514 32,000  Climbing FlightAware ADS-B
Fri 04:55:30 AM 52.0143 -4.7820 284° West 486 559 30,500 -2,500 Descending FlightAware UK
Fri 04:55:48 AM 52.0269 -4.8389 290° West 490 564 30,500 4,091 Level FlightAware UK
Fri 04:55:52 AM 52.0240 -4.8320 290° West 449 517 32,000  Climbing FlightAware ADS-B
Fri 04:56:12 AM 52.0446 -4.9141 290° West 490 564 30,500  Descending FlightAware UK
Fri 04:56:27 AM 52.0510 -4.9470 291° West 450 518 32,000  Climbing FlightAware ADS-B
Fri 04:56:30 AM 52.0580 -4.9711 291° West 490 564 30,500 -3,333 Descending FlightAware UK
Fri 04:56:54 AM 52.0756 -5.0470 291° West 492 566 30,500  Level FlightAware UK
Fri 04:57:12 AM 52.0896 -5.1032 292° West 492 566 30,500 5,000 Level FlightAware UK
Fri 04:57:12 AM 52.0820 -5.0780 292° West 449 517 32,000 -250 Climbing FlightAware ADS-B
Fri 04:57:36 AM 52.1086 -5.1771 292° West 490 564 30,400  Descending FlightAware UK
Fri 04:57:57 AM 52.1210 -5.2340 292° West 449 517 32,000 143 Climbing FlightAware ADS-B
Fri 04:58:18 AM 52.1408 -5.3089 292° West 488 562 30,500  Descending FlightAware UK
Fri 04:58:42 AM 52.1550 -5.3760 292° West 450 518 32,000  Climbing FlightAware ADS-B
Fri 04:59:00 AM 52.1724 -5.4413 292° West 492 566 30,500  Descending FlightAware UK
Fri 04:59:22 AM 52.1830 -5.4970 292° West 449 517 32,000 -143 Climbing FlightAware ADS-B
Fri 04:59:42 AM 52.2037 -5.5739 292° West 488 562 30,400 -2,526 Descending FlightAware UK
Fri 05:00:00 AM 52.2171 -5.6306 291° West 488 562 30,400 4,800 Level FlightAware UK
Fri 05:00:02 AM 52.2120 -5.6200 291° West 449 517 32,000  Climbing FlightAware ADS-B
Fri 05:00:18 AM 52.2305 -5.6873 291° West 482 555 30,400 -2,647 Descending FlightAware UK
Fri 05:00:36 AM 52.2439 -5.7438 291° West 480 552 30,500 3,310 Climbing FlightAware UK
Fri 05:00:47 AM 52.2460 -5.7650 291° West 443 510 32,000  Climbing FlightAware ADS-B
Fri 05:01:18 AM 52.2748 -5.8744 291° West 476 548 30,500  Descending FlightAware UK
Fri 05:01:27 AM 52.2770 -5.8930 291° West 443 510 32,000  Climbing FlightAware ADS-B
Fri 05:01:42 AM 52.2924 -5.9488 291° West 478 550 30,500 -2,727 Descending FlightAware UK
Fri 05:02:00 AM 52.3056 -6.0048 291° West 482 555 30,500 3,000 Level FlightAware UK
Fri 05:02:12 AM 52.3090 -6.0310 291° West 446 513 32,000  Climbing FlightAware ADS-B
Fri 05:02:30 AM 52.3276 -6.0991 291° West 488 562 30,500 -2,500 Descending FlightAware UK
Fri 05:02:48 AM 52.3409 -6.1561 291° West 488 562 30,500 4,091 Level FlightAware UK
Fri 05:02:52 AM 52.3380 -6.1570 291° West 450 518 32,000  Climbing FlightAware ADS-B
Fri 05:03:12 AM 52.3587 -6.2324 291° West 490 564 30,500 -2,368 Descending FlightAware UK
Fri 05:03:30 AM 52.3720 -6.2898 291° West 488 562 30,500 4,500 Level FlightAware UK
Fri 05:03:32 AM 52.3670 -6.2800 291° West 449 517 32,000  Climbing FlightAware ADS-B
Fri 05:03:48 AM 52.3853 -6.3470 291° West 488 562 30,500 -2,647 Descending FlightAware UK
Fri 05:04:06 AM 52.3985 -6.4042 291° West 486 559 30,500 3,103 Level FlightAware UK
Fri 05:04:17 AM 52.4010 -6.4300 291° West 450 518 32,000  Climbing FlightAware ADS-B
Fri 05:04:42 AM 52.4250 -6.5186 291° West 486 559 30,500  Descending FlightAware UK
Fri 05:04:57 AM 52.4310 -6.5580 291° West 450 518 32,000  Climbing FlightAware ADS-B
Fri 05:05:12 AM 52.4468 -6.6143 291° West 486 559 30,500 -2,727 Descending FlightAware UK
Fri 05:05:30 AM 52.4597 -6.6718 290° West 488 562 30,500 3,000 Level FlightAware UK
Fri 05:05:42 AM 52.4610 -6.6930 290° West 450 518 32,000  Climbing FlightAware ADS-B
Fri 05:06:00 AM 52.4816 -6.7676 290° West 486 559 30,500 -2,500 Descending FlightAware UK
Fri 05:06:18 AM 52.4947 -6.8253 290° West 488 562 30,500 4,091 Level FlightAware UK
Fri 05:06:22 AM 52.4920 -6.8290 290° West 452 520 32,000  Climbing FlightAware ADS-B
Fri 05:06:42 AM 52.5121 -6.9023 290° West 490 564 30,500 -2,368 Descending FlightAware UK
Fri 05:07:00 AM 52.5251 -6.9601 290° West 488 562 30,500 4,500 Level FlightAware UK
Fri 05:07:02 AM 52.5210 -6.9580 290° West 451 519 32,000  Climbing FlightAware ADS-B
Fri 05:07:18 AM 52.5381 -7.0179 290° West 486 559 30,500 -2,647 Descending FlightAware UK
Fri 05:07:36 AM 52.5511 -7.0757 290° West 484 557 30,500 3,103 Level FlightAware UK
Fri 05:07:47 AM 52.5520 -7.0960 290° West 451 519 32,000  Climbing FlightAware ADS-B
Fri 05:08:06 AM 52.5723 -7.1721 290° West 488 562 30,500 -2,432 Descending FlightAware UK
Fri 05:08:24 AM 52.5851 -7.2292 290° West 488 562 30,500 4,286 Level FlightAware UK
Fri 05:08:27 AM 52.5810 -7.2280 290° West 452 520 32,000  Climbing FlightAware ADS-B
Fri 05:08:42 AM 52.5980 -7.2872 290° West 490 564 30,500 -2,727 Descending FlightAware UK
Fri 05:09:00 AM 52.6107 -7.3453 290° West 490 564 30,500 3,000 Level FlightAware UK
Fri 05:09:12 AM 52.6130 -7.3740 290° West 450 518 32,000  Climbing FlightAware ADS-B
Fri 05:09:30 AM 52.6320 -7.4420 290° West 486 559 30,500  Descending FlightAware UK
Fri 05:09:52 AM 52.6410 -7.5030 290° West 449 517 32,000  Climbing FlightAware ADS-B
Fri 05:10:12 AM 52.6616 -7.5771 290° West 484 557 30,500 -2,368 Descending FlightAware UK
Fri 05:10:30 AM 52.6742 -7.6349 290° West 486 559 30,500 4,500 Level FlightAware UK
Fri 05:10:32 AM 52.6680 -7.6240 290° West 451 519 32,000  Climbing FlightAware ADS-B
Fri 05:10:48 AM 52.6867 -7.6929 290° West 482 555 30,500 -2,647 Descending FlightAware UK
Fri 05:11:06 AM 52.6993 -7.7511 290° West 486 559 30,500 3,103 Level FlightAware UK
Fri 05:11:17 AM 52.6980 -7.7620 290° West 453 521 32,000  Climbing FlightAware ADS-B
Fri 05:11:36 AM 52.7203 -7.8483 290° West 488 562 30,500 -2,432 Descending FlightAware UK
Fri 05:11:54 AM 52.7329 -7.9066 290° West 490 564 30,500 4,286 Level FlightAware UK
Fri 05:11:57 AM 52.7270 -7.8970 290° West 449 517 32,000  Climbing FlightAware ADS-B
Fri 05:12:12 AM 52.7454 -7.9652 290° West 488 562 30,500 -2,727 Descending FlightAware UK
Fri 05:12:30 AM 52.7578 -8.0236 289° West 488 562 30,500 3,000 Level FlightAware UK
Fri 05:12:42 AM 52.7570 -8.0400 289° West 450 518 32,000  Climbing FlightAware ADS-B
Fri 05:13:00 AM 52.7786 -8.1208 289° West 484 557 30,500 -2,500 Descending FlightAware UK
Fri 05:13:18 AM 52.7910 -8.1791 289° West 482 555 30,500 4,091 Level FlightAware UK
Fri 05:13:22 AM 52.7840 -8.1680 289° West 450 518 32,000  Climbing FlightAware ADS-B
Fri 05:13:42 AM 52.8073 -8.2569 289° West 480 552 30,500 -2,368 Descending FlightAware UK
Fri 05:14:00 AM 52.8195 -8.3154 289° West 484 557 30,500 4,500 Level FlightAware UK
Fri 05:14:02 AM 52.8120 -8.3000 289° West 452 520 32,000  Climbing FlightAware ADS-B
Fri 05:14:18 AM 52.8317 -8.3739 289° West 484 557 30,500 -2,647 Descending FlightAware UK
Fri 05:14:36 AM 52.8439 -8.4320 289° West 482 555 30,500 3,103 Level FlightAware UK
Fri 05:14:47 AM 52.8430 -8.4500 289° West 455 524 32,000  Climbing FlightAware ADS-B
Fri 05:15:06 AM 52.8645 -8.5305 289° West 482 555 30,500 -2,432 Descending FlightAware UK
Fri 05:15:24 AM 52.8768 -8.5900 289° West 486 559 30,500 4,286 Level FlightAware UK
Fri 05:15:27 AM 52.8710 -8.5830 289° West 460 529 32,000  Climbing FlightAware ADS-B
Fri 05:15:42 AM 52.8893 -8.6498 289° West 480 552 30,500 -2,727 Descending FlightAware UK
Fri 05:16:00 AM 52.9018 -8.7103 289° West 478 550 30,500 3,000 Level FlightAware UK
Fri 05:16:12 AM 52.9030 -8.7340 289° West 463 533 32,000  Climbing FlightAware ADS-B
Fri 05:16:30 AM 52.9225 -8.8110 289° West 482 555 30,500 -2,500 Descending FlightAware UK
Fri 05:16:48 AM 52.9351 -8.8720 289° West 488 562 30,500 4,091 Level FlightAware UK
Fri 05:16:52 AM 52.9310 -8.8710 289° West 466 536 32,000  Climbing FlightAware ADS-B
Fri 05:17:12 AM 52.9517 -8.9532 289° West 488 562 30,500  Descending FlightAware UK
Fri 05:17:32 AM 52.9580 -9.0060 289° West 469 540 32,000 1,385 Climbing FlightAware ADS-B
Fri 05:18:17 AM 52.9890 -9.1600 289° West 468 539 32,000  Level FlightAware ADS-B
Fri 05:18:57 AM 53.0160 -9.2950 288° West 469 540 32,000  Level FlightAware ADS-B
Fri 05:19:42 AM 53.0470 -9.4470 289° West 469 540 32,000  Level FlightAware ADS-B
Fri 05:20:22 AM 53.0740 -9.5860 288° West 470 541 32,000  Level FlightAware ADS-B
Fri 05:21:02 AM 53.1010 -9.7210 288° West 471 542 32,000  Level FlightAware ADS-B
Fri 05:21:47 AM 53.1320 -9.8780 288° West 470 541 32,000 494 Level FlightAware ADS-B
Fri 05:22:27 AM 53.1580 -10.0160 287° West 467 537 32,700 918 Climbing FlightAware ADS-B
Fri 05:23:12 AM 53.1880 -10.1680 288° West 474 545 33,300 918 Climbing FlightAware ADS-B
Fri 05:23:52 AM 53.2140 -10.3080 287° West 472 543 34,000 525 Climbing FlightAware ADS-B
Fri 05:24:32 AM 53.2400 -10.4430 288° West 455 524 34,000  Level FlightAware ADS-B
Fri 05:25:17 AM 53.2690 -10.5960 288° West 455 524 34,000  Level FlightAware ADS-B
Fri 05:25:57 AM 53.2940 -10.7300 287° West 457 526 34,000  Level FlightAware ADS-B
Fri 05:26:37 AM 53.3190 -10.8640 287° West 459 528 34,000  Level FlightAware ADS-B
Fri 05:27:22 AM 53.3460 -11.0110 287° West 461 531 34,000  Level FlightAware ADS-B
Fri 05:28:02 AM 53.3730 -11.1570 287° West 461 531 34,000  Level FlightAware ADS-B
Fri 05:28:47 AM 53.4020 -11.3150 287° West 462 532 34,000  Level FlightAware ADS-B
Fri 05:29:27 AM 53.4250 -11.4470 286° West 466 536 34,000  Level FlightAware ADS-B
Fri 05:30:12 AM 53.4540 -11.6040 287° West 464 534 34,000  Level FlightAware ADS-B
Fri 05:30:42 AM 53.4720 -11.7060 287° West 467 537 34,000  Level FlightAware ADS-B
Fri 05:31:47 AM 53.5090 -11.9200 286° West 466 536 34,000  Level FlightAware ADS-B
Fri 05:32:32 AM 53.5380 -12.0810 287° West 464 534 34,000  Level FlightAware ADS-B
Fri 05:33:12 AM 53.5620 -12.2230 286° West 463 533 34,000  Level FlightAware ADS-B
Fri 05:33:52 AM 53.5860 -12.3660 286° West 461 531 34,000  Level FlightAware ADS-B
Fri 05:34:32 AM 53.6080 -12.4880 287° West 463 533 34,000  Level FlightAware ADS-B
Fri 05:35:02 AM 53.6270 -12.6060 285° West 461 531 34,000  Level FlightAware ADS-B
Fri 05:35:52 AM 53.6530 -12.7670 285° West 461 531 34,000  Level FlightAware ADS-B
Fri 05:36:52 AM 53.6910 -12.9870 286° West 462 532 34,000  Level FlightAware ADS-B
Fri 05:37:37 AM 53.7170 -13.1430 286° West 464 534 34,000  Level FlightAware ADS-B
Fri 05:38:12 AM 53.7360 -13.2580 286° West 465 535 34,000  Level FlightAware ADS-B
Fri 05:39:02 AM 53.7630 -13.4270 285° West 464 534 34,000  Level FlightAware ADS-B
Fri 05:39:42 AM 53.7870 -13.5800 285° West 466 536 34,000  Level FlightAware ADS-B
Fri 05:40:17 AM 53.8060 -13.6990 285° West 467 537 34,000  Level FlightAware ADS-B
Fri 05:41:07 AM 53.8310 -13.8610 285° West 466 536 34,000  Level FlightAware ADS-B
Fri 05:41:47 AM 53.8480 -13.9820 283° West 466 536 34,000  Level FlightAware ADS-B
Fri 05:42:22 AM 53.8760 -14.1440 286° West 470 541 34,000  Level FlightAware ADS-B
Fri 05:43:07 AM 53.8950 -14.2870 283° West 470 541 34,000  Level FlightAware ADS-B
Fri 05:43:57 AM 53.9160 -14.4400 283° West 470 541 34,000  Level FlightAware ADS-B
Fri 05:44:37 AM 53.9330 -14.5630 283° West 470 541 34,000  Level FlightAware ADS-B
Fri 05:45:17 AM 53.9490 -14.6850 283° West 470 541 34,000  Level FlightAware ADS-B
Fri 05:45:57 AM 53.9660 -14.8070 283° West 470 541 34,000  Level FlightAware ADS-B
Fri 05:46:37 AM 53.9820 -14.9300 283° West 470 541 34,000  Level FlightAware ADS-B
Fri 05:47:27 AM 54.0030 -15.0830 283° West 470 541 34,000  Level FlightAware ADS-B
Fri 05:48:07 AM 54.0200 -15.2060 283° West 470 541 34,000  Level FlightAware ADS-B
Fri 05:48:47 AM 54.0360 -15.3280 283° West 470 541 34,000  Level FlightAware ADS-B
Fri 05:49:27 AM 54.0530 -15.4510 283° West 470 541 34,000  Level FlightAware ADS-B
Fri 05:50:07 AM 54.0700 -15.5740 283° West 470 541 34,000  Level FlightAware ADS-B
Fri 05:50:47 AM 54.0860 -15.6960 283° West 470 541 34,000  Level FlightAware ADS-B
Fri 05:51:27 AM 54.1030 -15.8190 283° West 470 541 34,000  Level FlightAware ADS-B
Fri 05:52:07 AM 54.1190 -15.9420 283° West 470 541 34,000  Level FlightAware ADS-B
Fri 05:54:00 AM 54.1382 -16.3135 275° West  Level Estimated
Fri 05:55:00 AM 54.1480 -16.5109 275° West  Level Estimated
Fri 05:56:00 AM 54.1574 -16.7084 275° West  Level Estimated
Fri 05:57:00 AM 54.1665 -16.9059 275° West  Level Estimated
Fri 05:58:00 AM 54.1753 -17.1036 274° West  Level Estimated
Fri 05:59:00 AM 54.1837 -17.3013 274° West  Level Estimated
Fri 06:00:00 AM 54.1921 -17.5050 274° West  Level Estimated
Fri 06:01:00 AM 54.2001 -17.7088 274° West  Level Estimated
Fri 06:02:00 AM 54.2078 -17.9126 274° West  Level Estimated
Fri 06:03:00 AM 54.2151 -18.1165 274° West  Level Estimated
Fri 06:04:00 AM 54.2221 -18.3205 273° West  Level Estimated
Fri 06:05:00 AM 54.2287 -18.5245 273° West  Level Estimated
Fri 06:06:00 AM 54.2351 -18.7287 273° West  Level Estimated
Fri 06:07:00 AM 54.2410 -18.9328 273° West  Level Estimated
Fri 06:08:00 AM 54.2466 -19.1371 273° West  Level Estimated
Fri 06:09:00 AM 54.2519 -19.3413 273° West  Level Estimated
Fri 06:09:00 AM 53.0000 -20.0000 256° West 456 525 34,000  Level ETMS Enhanced Traffic Management System
Fri 06:10:00 AM 54.2568 -19.5457 272° West  Level Estimated
Fri 06:11:00 AM 54.2614 -19.7500 272° West  Level Estimated
Fri 06:12:00 AM 54.2656 -19.9545 272° West  Level Estimated
Fri 06:13:00 AM 54.2695 -20.1589 272° West  Level Estimated
Fri 06:14:00 AM 54.2730 -20.3634 272° West  Level Estimated
Fri 06:15:00 AM 54.2762 -20.5680 272° West  Level Estimated
Fri 06:16:00 AM 52.7766 -21.4238 255° West 456 525 34,000  Level FlightAware Transoceanic
Fri 06:17:00 AM 52.7433 -21.6260 255° West 456 525 34,000  Level FlightAware Transoceanic
Fri 06:18:00 AM 52.7097 -21.8278 255° West 456 525 34,000  Level FlightAware Transoceanic
Fri 06:19:00 AM 52.6757 -22.0294 254° West 456 525 34,000  Level FlightAware Transoceanic
Fri 06:20:00 AM 52.6413 -22.2306 254° West 456 525 34,000  Level FlightAware Transoceanic
Fri 06:21:00 AM 52.6067 -22.4316 254° West 456 525 34,000  Level FlightAware Transoceanic
Fri 06:22:00 AM 52.5717 -22.6322 254° West 456 525 34,000  Level FlightAware Transoceanic
Fri 06:23:00 AM 52.5363 -22.8325 254° West 456 525 34,000  Level FlightAware Transoceanic
Fri 06:24:00 AM 52.5006 -23.0324 254° West 456 525 34,000  Level FlightAware Transoceanic
Fri 06:25:00 AM 52.4646 -23.2321 253° West 456 525 34,000  Level FlightAware Transoceanic
Fri 06:26:00 AM 52.4283 -23.4314 253° West 456 525 34,000  Level FlightAware Transoceanic
Fri 06:27:00 AM 52.3916 -23.6304 253° West 456 525 34,000  Level FlightAware Transoceanic
Fri 06:28:00 AM 52.3546 -23.8290 253° West 456 525 34,000  Level FlightAware Transoceanic
Fri 06:29:00 AM 52.3172 -24.0273 253° West 456 525 34,000  Level FlightAware Transoceanic
Fri 06:30:00 AM 52.2795 -24.2253 253° West 456 525 34,000  Level FlightAware Transoceanic
Fri 06:31:00 AM 52.2415 -24.4229 252° West 456 525 34,000  Level FlightAware Transoceanic
Fri 06:32:00 AM 52.2032 -24.6202 252° West 456 525 34,000  Level FlightAware Transoceanic
Fri 06:33:00 AM 52.1645 -24.8172 252° West 456 525 34,000  Level FlightAware Transoceanic
Fri 06:34:00 AM 52.1255 -25.0138 252° West 456 525 34,000  Level FlightAware Transoceanic
Fri 06:35:00 AM 52.0862 -25.2101 252° West 456 525 34,000  Level FlightAware Transoceanic
Fri 06:36:00 AM 52.0465 -25.4060 252° West 456 525 34,000  Level FlightAware Transoceanic
Fri 06:37:00 AM 52.0065 -25.6016 252° West 456 525 34,000  Level FlightAware Transoceanic
Fri 06:38:00 AM 51.9662 -25.7968 251° West 456 525 34,000  Level FlightAware Transoceanic
Fri 06:39:00 AM 51.9256 -25.9917 251° West 456 525 34,000  Level FlightAware Transoceanic
Fri 06:40:00 AM 51.8847 -26.1862 251° West 456 525 34,000  Level FlightAware Transoceanic
Fri 06:41:00 AM 51.8434 -26.3804 251° West 456 525 34,000  Level FlightAware Transoceanic
Fri 06:42:00 AM 51.8018 -26.5742 251° West 456 525 34,000  Level FlightAware Transoceanic
Fri 06:43:00 AM 51.7599 -26.7676 251° West 456 525 34,000  Level FlightAware Transoceanic
Fri 06:44:00 AM 51.7177 -26.9607 250° West 456 525 34,000  Level FlightAware Transoceanic
Fri 06:45:00 AM 51.6752 -27.1534 250° West 456 525 34,000  Level FlightAware Transoceanic
Fri 06:46:00 AM 51.6323 -27.3458 250° West 456 525 34,000  Level FlightAware Transoceanic
Fri 06:47:00 AM 51.5892 -27.5378 250° West 456 525 34,000  Level FlightAware Transoceanic
Fri 06:48:00 AM 51.5457 -27.7294 250° West 456 525 34,000  Level FlightAware Transoceanic
Fri 06:49:00 AM 51.5019 -27.9207 250° West 456 525 34,000  Level FlightAware Transoceanic
Fri 06:50:00 AM 51.4578 -28.1116 250° West 456 525 34,000  Level FlightAware Transoceanic
Fri 06:51:00 AM 51.4134 -28.3021 249° West 456 525 34,000  Level FlightAware Transoceanic
Fri 06:52:00 AM 51.3687 -28.4923 249° West 456 525 34,000  Level FlightAware Transoceanic
Fri 06:53:00 AM 51.3237 -28.6820 249° West 456 525 34,000  Level FlightAware Transoceanic
Fri 06:54:00 AM 51.2783 -28.8715 249° West 456 525 34,000  Level FlightAware Transoceanic
Fri 06:55:00 AM 51.2327 -29.0605 249° West 456 525 34,000  Level FlightAware Transoceanic
Fri 06:56:00 AM 51.1868 -29.2491 249° West 456 525 34,000  Level FlightAware Transoceanic
Fri 06:57:00 AM 51.1405 -29.4374 249° West 456 525 34,000  Level FlightAware Transoceanic
Fri 06:58:00 AM 51.0940 -29.6253 248° West 456 525 34,000  Level FlightAware Transoceanic
Fri 06:59:00 AM 51.0471 -29.8129 248° West 456 525 34,000  Level FlightAware Transoceanic
Fri 07:00:00 AM 51.0027 -29.9892 248° West  Level FlightAware Approximate
Fri 07:01:00 AM 50.9580 -30.1651 248° West  Level FlightAware Approximate
Fri 07:02:00 AM 50.9904 -30.1658 265° West  Level FlightAware Approximate
Fri 07:03:00 AM 50.9792 -30.3548 265° West  Level FlightAware Approximate
Fri 07:04:00 AM 50.9677 -30.5436 265° West  Level FlightAware Approximate
Fri 07:05:00 AM 50.9559 -30.7324 264° West  Level FlightAware Approximate
Fri 07:06:00 AM 50.9438 -30.9210 264° West  Level FlightAware Approximate
Fri 07:07:00 AM 50.9313 -31.1096 264° West  Level FlightAware Approximate
Fri 07:08:00 AM 50.9186 -31.2980 264° West  Level FlightAware Approximate
Fri 07:09:00 AM 50.9056 -31.4864 264° West  Level FlightAware Approximate
Fri 07:10:00 AM 50.8922 -31.6746 264° West  Level FlightAware Approximate
Fri 07:11:00 AM 50.8786 -31.8627 264° West  Level FlightAware Approximate
Fri 07:12:00 AM 50.8647 -32.0508 263° West  Level FlightAware Approximate
Fri 07:13:00 AM 50.8504 -32.2387 263° West  Level FlightAware Approximate
Fri 07:14:00 AM 50.8359 -32.4265 263° West  Level FlightAware Approximate
Fri 07:15:00 AM 50.8210 -32.6142 263° West  Level FlightAware Approximate
Fri 07:16:00 AM 50.8059 -32.8017 263° West  Level FlightAware Approximate
Fri 07:17:00 AM 50.7904 -32.9891 263° West  Level FlightAware Approximate
Fri 07:18:00 AM 50.7747 -33.1764 262° West  Level FlightAware Approximate
Fri 07:19:00 AM 50.7586 -33.3636 262° West  Level FlightAware Approximate
Fri 07:20:00 AM 50.7423 -33.5507 262° West  Level FlightAware Approximate
Fri 07:21:00 AM 50.7257 -33.7376 262° West  Level FlightAware Approximate
Fri 07:22:00 AM 50.7087 -33.9244 262° West  Level FlightAware Approximate
Fri 07:23:00 AM 50.6915 -34.1110 262° West  Level FlightAware Approximate
Fri 07:24:00 AM 50.6739 -34.2975 262° West  Level FlightAware Approximate
Fri 07:25:00 AM 50.6561 -34.4839 261° West  Level FlightAware Approximate
Fri 07:26:00 AM 50.6380 -34.6701 261° West  Level FlightAware Approximate
Fri 07:27:00 AM 50.6195 -34.8562 261° West  Level FlightAware Approximate
Fri 07:28:00 AM 50.6008 -35.0421 261° West  Level FlightAware Approximate
Fri 07:29:00 AM 50.5816 -35.2279 261° West  Level FlightAware Approximate
Fri 07:30:00 AM 50.5620 -35.4135 261° West  Level FlightAware Approximate
Fri 07:31:00 AM 50.5422 -35.5989 261° West  Level FlightAware Approximate
Fri 07:32:00 AM 50.5221 -35.7842 260° West  Level FlightAware Approximate
Fri 07:33:00 AM 50.5017 -35.9693 260° West  Level FlightAware Approximate
Fri 07:34:00 AM 50.4810 -36.1542 260° West  Level FlightAware Approximate
Fri 07:35:00 AM 50.4600 -36.3390 260° West  Level FlightAware Approximate
Fri 07:36:00 AM 50.4387 -36.5236 260° West  Level FlightAware Approximate
Fri 07:37:00 AM 50.4171 -36.7081 260° West  Level FlightAware Approximate
Fri 07:38:00 AM 50.3952 -36.8923 260° West  Level FlightAware Approximate
Fri 07:39:00 AM 50.3730 -37.0765 259° West  Level FlightAware Approximate
Fri 07:40:00 AM 50.3506 -37.2604 259° West  Level FlightAware Approximate
Fri 07:41:00 AM 50.3278 -37.4442 259° West  Level FlightAware Approximate
Fri 07:42:00 AM 50.3056 -37.6280 260° West  Level FlightAware Approximate
Fri 07:43:00 AM 50.2837 -37.8118 260° West  Level FlightAware Approximate
Fri 07:44:00 AM 50.2616 -37.9955 259° West  Level FlightAware Approximate
Fri 07:45:00 AM 50.2392 -38.1790 259° West  Level FlightAware Approximate
Fri 07:46:00 AM 50.2165 -38.3624 259° West  Level FlightAware Approximate
Fri 07:47:00 AM 50.1936 -38.5456 259° West  Level FlightAware Approximate
Fri 07:48:00 AM 50.1703 -38.7285 259° West  Level FlightAware Approximate
Fri 07:49:00 AM 50.1467 -38.9114 259° West  Level FlightAware Approximate
Fri 07:50:00 AM 50.1229 -39.0940 259° West  Level FlightAware Approximate
Fri 07:51:00 AM 50.0988 -39.2765 258° West  Level FlightAware Approximate
Fri 07:52:00 AM 50.0743 -39.4587 258° West  Level FlightAware Approximate
Fri 07:53:00 AM 50.0496 -39.6408 258° West  Level FlightAware Approximate
Fri 07:54:00 AM 50.0247 -39.8227 258° West  Level FlightAware Approximate
Fri 07:55:00 AM 49.9993 -40.0044 256° West  Level FlightAware Approximate
Fri 07:56:00 AM 49.9709 -40.1849 256° West  Level FlightAware Approximate
Fri 07:57:00 AM 49.9423 -40.3651 256° West  Level FlightAware Approximate
Fri 07:58:00 AM 49.9133 -40.5452 256° West  Level FlightAware Approximate
Fri 07:59:00 AM 49.8841 -40.7250 256° West  Level FlightAware Approximate
Fri 08:00:00 AM 49.8546 -40.9047 256° West  Level FlightAware Approximate
Fri 08:01:00 AM 49.8248 -41.0841 256° West  Level FlightAware Approximate
Fri 08:02:00 AM 49.7948 -41.2632 255° West  Level FlightAware Approximate
Fri 08:03:00 AM 49.7645 -41.4422 255° West  Level FlightAware Approximate
Fri 08:04:00 AM 49.7338 -41.6209 255° West  Level FlightAware Approximate
Fri 08:05:00 AM 49.7030 -41.7994 255° West  Level FlightAware Approximate
Fri 08:06:00 AM 49.6718 -41.9777 255° West  Level FlightAware Approximate
Fri 08:07:00 AM 49.6404 -42.1558 255° West  Level FlightAware Approximate
Fri 08:08:00 AM 49.6087 -42.3336 255° West  Level FlightAware Approximate
Fri 08:09:00 AM 49.5767 -42.5112 255° West  Level FlightAware Approximate
Fri 08:10:00 AM 49.5455 -42.6889 255° West  Level FlightAware Approximate
Fri 08:11:00 AM 49.5144 -42.8666 255° West  Level FlightAware Approximate
Fri 08:12:00 AM 49.4830 -43.0441 255° West  Level FlightAware Approximate
Fri 08:13:00 AM 49.4514 -43.2214 255° West  Level FlightAware Approximate
Fri 08:14:00 AM 49.4194 -43.3984 255° West  Level FlightAware Approximate
Fri 08:15:00 AM 49.3873 -43.5752 254° West  Level FlightAware Approximate
Fri 08:16:00 AM 49.3548 -43.7518 254° West  Level FlightAware Approximate
Fri 08:17:00 AM 49.3221 -43.9282 254° West  Level FlightAware Approximate
Fri 08:18:00 AM 49.2891 -44.1043 254° West  Level FlightAware Approximate
Fri 08:19:00 AM 49.2559 -44.2802 254° West  Level FlightAware Approximate
Fri 08:20:00 AM 49.2223 -44.4558 254° West  Level FlightAware Approximate
Fri 08:21:00 AM 49.1885 -44.6312 254° West  Level FlightAware Approximate
Fri 08:22:00 AM 49.1545 -44.8063 254° West  Level FlightAware Approximate
Fri 08:23:00 AM 49.1202 -44.9812 253° West  Level FlightAware Approximate
Fri 08:24:00 AM 49.0854 -45.1558 253° West  Level FlightAware Approximate
Fri 08:25:00 AM 49.0499 -45.3299 253° West  Level FlightAware Approximate
Fri 08:26:00 AM 49.0142 -45.5038 253° West  Level FlightAware Approximate
Fri 08:27:00 AM 48.9783 -45.6775 253° West  Level FlightAware Approximate
Fri 08:28:00 AM 48.9420 -45.8509 252° West  Level FlightAware Approximate
Fri 08:29:00 AM 48.9056 -46.0240 252° West  Level FlightAware Approximate
Fri 08:30:00 AM 48.8688 -46.1969 252° West  Level FlightAware Approximate
Fri 08:31:00 AM 48.8318 -46.3695 252° West  Level FlightAware Approximate
Fri 08:32:00 AM 48.7946 -46.5419 252° West  Level FlightAware Approximate
Fri 08:33:00 AM 48.7571 -46.7141 252° West  Level FlightAware Approximate
Fri 08:34:00 AM 48.7193 -46.8859 252° West  Level FlightAware Approximate
Fri 08:35:00 AM 48.6813 -47.0575 252° West  Level FlightAware Approximate
Fri 08:36:00 AM 48.6430 -47.2289 251° West  Level FlightAware Approximate
Fri 08:37:00 AM 48.6045 -47.4000 251° West  Level FlightAware Approximate
Fri 08:38:00 AM 48.5658 -47.5708 251° West  Level FlightAware Approximate
Fri 08:39:00 AM 48.5277 -47.7418 251° West  Level FlightAware Approximate
Fri 08:40:00 AM 48.4894 -47.9127 251° West  Level FlightAware Approximate
Fri 08:41:00 AM 48.4508 -48.0832 251° West  Level FlightAware Approximate
Fri 08:42:00 AM 48.4120 -48.2535 251° West  Level FlightAware Approximate
Fri 08:43:00 AM 48.3730 -48.4235 251° West  Level FlightAware Approximate
Fri 08:44:00 AM 48.3337 -48.5933 251° West  Level FlightAware Approximate
Fri 08:45:00 AM 48.2941 -48.7628 251° West  Level FlightAware Approximate
Fri 08:46:00 AM 48.2543 -48.9320 251° West  Level FlightAware Approximate
Fri 08:47:00 AM 48.2142 -49.1010 250° West  Level FlightAware Approximate
Fri 08:48:00 AM 48.1739 -49.2697 250° West  Level FlightAware Approximate
Fri 08:49:00 AM 48.1334 -49.4382 250° West  Level FlightAware Approximate
Fri 08:50:00 AM 48.0926 -49.6064 250° West  Level FlightAware Approximate
Fri 08:51:00 AM 48.0515 -49.7743 250° West  Level FlightAware Approximate
Fri 08:52:00 AM 48.0103 -49.9419 250° West  Level FlightAware Approximate
Fri 08:53:00 AM 47.9797 -50.1137 255° West  Level FlightAware Approximate
Fri 08:54:00 AM 47.9486 -50.2860 255° West  Level FlightAware Approximate
Fri 08:55:00 AM 47.9170 -50.4594 255° West  Level FlightAware Approximate
Fri 08:56:00 AM 47.8852 -50.6327 255° West  Level FlightAware Approximate
Fri 08:57:00 AM 47.8531 -50.8057 255° West  Level FlightAware Approximate
Fri 08:58:00 AM 47.8207 -50.9785 254° West  Level FlightAware Approximate
Fri 08:59:00 AM 47.7905 -51.1521 256° West  Level FlightAware Approximate
Fri 08:59:07 AM 47.8040 -51.1910 256° West 427 491 34,000  Level FlightAware ADS-B
Fri 09:00:00 AM 47.7605 -51.3256 256° West  Level FlightAware Approximate
Fri 09:00:02 AM 47.7770 -51.3410 255° West 426 490 34,000  Level FlightAware ADS-B
Fri 09:00:47 AM 47.7540 -51.4640 254° West 426 490 34,000  Level FlightAware ADS-B
Fri 09:01:27 AM 47.7310 -51.5860 254° West 426 490 34,000  Level FlightAware ADS-B
Fri 09:02:07 AM 47.7100 -51.6980 254° West 426 490 34,000  Level FlightAware ADS-B
Fri 09:02:52 AM 47.6870 -51.8200 254° West 426 490 34,000  Level FlightAware ADS-B
Fri 09:03:32 AM 47.6660 -51.9330 255° West 427 491 34,000  Level FlightAware ADS-B
Fri 09:04:12 AM 47.6450 -52.0460 255° West 426 490 34,000  Level FlightAware ADS-B
Fri 09:04:57 AM 47.6200 -52.1760 254° West 424 488 34,000  Level FlightAware ADS-B
Fri 09:05:37 AM 47.5980 -52.2860 254° West 423 487 34,000  Level FlightAware ADS-B
Fri 09:06:17 AM 47.5770 -52.3970 254° West 420 483 34,000  Level FlightAware ADS-B
Fri 09:07:02 AM 47.5530 -52.5170 254° West 420 483 34,000  Level FlightAware ADS-B
Fri 09:07:42 AM 47.5320 -52.6260 254° West 420 483 34,000  Level FlightAware ADS-B
Fri 09:08:27 AM 47.5070 -52.7520 254° West 421 484 34,000  Level FlightAware ADS-B
Fri 09:09:07 AM 47.4840 -52.8660 253° West 422 486 34,000  Level FlightAware ADS-B
Fri 09:09:52 AM 47.4600 -52.9860 254° West 423 487 34,000  Level FlightAware ADS-B
Fri 09:10:32 AM 47.4370 -53.0940 253° West 427 491 34,000  Level FlightAware ADS-B
Fri 09:11:12 AM 47.4130 -53.2110 253° West 436 502 34,000 635 Level FlightAware ADS-B
Fri 09:11:57 AM 47.3870 -53.3400 253° West 432 497 34,900 1,200 Climbing FlightAware ADS-B
Fri 09:12:37 AM 47.3630 -53.4520 252° West 434 499 35,700 825 Climbing FlightAware ADS-B
Fri 09:13:17 AM 47.3390 -53.5670 253° West 443 510 36,000 212 Climbing FlightAware ADS-B
Fri 09:14:02 AM 47.3120 -53.6920 252° West 443 510 36,000  Level FlightAware ADS-B
Fri 09:14:42 AM 47.2880 -53.8050 253° West 445 512 36,000  Level FlightAware ADS-B
Fri 09:15:27 AM 47.2590 -53.9420 253° West 448 516 36,000  Level FlightAware ADS-B
Fri 09:16:17 AM 47.2280 -54.0880 253° West 450 518 36,000  Level FlightAware ADS-B
Fri 09:16:57 AM 47.2030 -54.2040 252° West 453 521 36,000  Level FlightAware ADS-B
Fri 09:17:42 AM 47.1750 -54.3310 252° West 453 521 36,000  Level FlightAware ADS-B
Fri 09:18:22 AM 47.1500 -54.4480 253° West 453 521 36,000  Level FlightAware ADS-B
Fri 09:19:02 AM 47.1240 -54.5660 252° West 453 521 36,000  Level FlightAware ADS-B
Fri 09:19:47 AM 47.0950 -54.6980 252° West 453 521 36,000  Level FlightAware ADS-B
Fri 09:20:27 AM 47.0680 -54.8170 252° West 453 521 36,000  Level FlightAware ADS-B
Fri 09:21:12 AM 47.0400 -54.9450 252° West 453 521 36,000  Level FlightAware ADS-B
Fri 09:21:52 AM 47.0130 -55.0630 251° West 451 519 36,000  Level FlightAware ADS-B
Fri 09:22:37 AM 46.9840 -55.1920 252° West 450 518 36,000  Level FlightAware ADS-B
Fri 09:23:17 AM 46.9580 -55.3090 252° West 449 517 36,000  Level FlightAware ADS-B
Fri 09:24:02 AM 46.9290 -55.4330 251° West 449 517 36,000  Level FlightAware ADS-B
Fri 09:25:07 AM 46.8880 -55.6160 252° West 449 517 36,000  Level FlightAware ADS-B
Fri 09:25:52 AM 46.8580 -55.7430 251° West 448 516 36,000  Level FlightAware ADS-B
Fri 09:26:27 AM 46.8350 -55.8450 252° West 448 516 36,000  Level FlightAware ADS-B
Fri 09:27:17 AM 46.8020 -55.9890 252° West 447 514 36,000  Level FlightAware ADS-B
Fri 09:27:57 AM 46.7750 -56.1020 251° West 446 513 36,000  Level FlightAware ADS-B
Fri 09:28:37 AM 46.7510 -56.2060 251° West 446 513 36,000  Level FlightAware ADS-B
Fri 09:29:17 AM 46.7250 -56.3170 251° West 447 514 36,000  Level FlightAware ADS-B
Fri 09:29:57 AM 46.6950 -56.4430 251° West 448 516 36,000  Level FlightAware ADS-B
Fri 09:30:42 AM 46.6650 -56.5700 251° West 448 516 36,000  Level FlightAware ADS-B
Fri 09:31:27 AM 46.6350 -56.6940 251° West 446 513 36,000  Level FlightAware ADS-B
Fri 09:32:02 AM 46.6110 -56.7920 250° West 446 513 36,000  Level FlightAware ADS-B
Fri 09:32:47 AM 46.5820 -56.9140 251° West 442 509 36,000  Level FlightAware ADS-B
Fri 09:33:27 AM 46.5540 -57.0290 251° West 442 509 36,000  Level FlightAware ADS-B
Fri 09:34:07 AM 46.5300 -57.1240 250° West 442 509 36,000  Level FlightAware ADS-B
Fri 09:34:57 AM 46.5010 -57.2420 250° West 442 509 36,000  Level FlightAware ADS-B
Fri 09:35:37 AM 46.4770 -57.3370 250° West 442 509 36,000  Level FlightAware ADS-B
Fri 09:36:17 AM 46.4530 -57.4320 250° West 442 509 36,000  Level FlightAware ADS-B
Fri 09:37:17 AM 46.3970 -57.6720 251° West 443 510 36,000  Level FlightAware ADS-B
Fri 09:37:57 AM 46.3670 -57.7960 251° West 446 513 36,000  Level FlightAware ADS-B
Fri 09:38:37 AM 46.3390 -57.9080 250° West 446 513 36,000  Level FlightAware ADS-B
Fri 09:39:22 AM 46.3090 -58.0290 250° West 447 514 36,000  Level FlightAware ADS-B
Fri 09:39:57 AM 46.2830 -58.1300 250° West 447 514 36,000  Level FlightAware ADS-B
Fri 09:40:47 AM 46.2490 -58.2650 250° West 445 512 36,000  Level FlightAware ADS-B
Fri 09:41:27 AM 46.2200 -58.3810 250° West 442 509 36,000  Level FlightAware ADS-B
Fri 09:42:12 AM 46.1870 -58.5090 250° West 441 507 36,000  Level FlightAware ADS-B
Fri 09:42:52 AM 46.1590 -58.6190 250° West 441 507 36,000  Level FlightAware ADS-B
Fri 09:43:32 AM 46.1310 -58.7290 250° West 440 506 36,000  Level FlightAware ADS-B
Fri 09:44:17 AM 46.1000 -58.8500 250° West 438 504 36,000  Level FlightAware ADS-B
Fri 09:44:57 AM 46.0720 -58.9580 250° West 438 504 36,000  Level FlightAware ADS-B
Fri 09:45:42 AM 46.0390 -59.0840 249° West 438 504 36,000  Level FlightAware ADS-B
Fri 09:46:22 AM 46.0110 -59.1940 250° West 440 506 36,000  Level FlightAware ADS-B
Fri 09:47:02 AM 45.9820 -59.3040 249° West 441 507 36,000  Level FlightAware ADS-B
Fri 09:47:47 AM 45.9500 -59.4230 249° West 442 509 36,000  Level FlightAware ADS-B
Fri 09:48:27 AM 45.9210 -59.5320 249° West 442 509 36,000  Level FlightAware ADS-B
Fri 09:49:07 AM 45.8920 -59.6430 249° West 444 511 36,000  Level FlightAware ADS-B
Fri 09:49:52 AM 45.8580 -59.7700 249° West 444 511 36,000  Level FlightAware ADS-B
Fri 09:50:32 AM 45.8290 -59.8800 249° West 443 510 36,000  Level FlightAware ADS-B
Fri 09:51:17 AM 45.7970 -59.9980 249° West 441 507 36,000  Level FlightAware ADS-B
Fri 09:51:57 AM 45.7670 -60.1060 248° West 438 504 36,000  Level FlightAware ADS-B
Fri 09:52:37 AM 45.7380 -60.2150 249° West 437 503 36,000  Level FlightAware ADS-B
Fri 09:53:22 AM 45.7040 -60.3380 248° West 436 502 36,000  Level FlightAware ADS-B
Fri 09:54:02 AM 45.6750 -60.4450 249° West 436 502 36,000  Level FlightAware ADS-B
Fri 09:54:47 AM 45.6420 -60.5640 248° West 432 497 36,000  Level FlightAware ADS-B
Fri 09:55:27 AM 45.6130 -60.6700 249° West 429 494 36,000  Level FlightAware ADS-B
Fri 09:56:07 AM 45.5840 -60.7730 248° West 427 491 36,000  Level FlightAware ADS-B
Fri 09:56:52 AM 45.5500 -60.8940 248° West 428 493 36,000  Level FlightAware ADS-B
Fri 09:57:32 AM 45.5210 -60.9980 248° West 429 494 36,000  Level FlightAware ADS-B
Fri 09:58:17 AM 45.4880 -61.1140 248° West 429 494 36,000  Level FlightAware ADS-B
Fri 09:58:57 AM 45.4600 -61.2140 248° West 426 490 36,000  Level FlightAware ADS-B
Fri 09:59:42 AM 45.4270 -61.3230 247° West 425 489 36,000  Level FlightAware ADS-B
Fri 10:00:22 AM 45.4010 -61.4110 247° West 425 489 36,000  Level FlightAware ADS-B
Fri 10:01:02 AM 45.3750 -61.4990 247° West 425 489 36,000  Level FlightAware ADS-B
Fri 10:01:42 AM 45.3490 -61.5860 247° West 425 489 36,000  Level FlightAware ADS-B
Fri 10:02:22 AM 45.3230 -61.6740 247° West 425 489 36,000  Level FlightAware ADS-B
Fri 10:03:12 AM 45.2900 -61.7830 247° West 425 489 36,000  Level FlightAware ADS-B
Fri 10:03:52 AM 45.2640 -61.8700 247° West 425 489 36,000  Level FlightAware ADS-B
Fri 10:04:32 AM 45.2380 -61.9580 247° West 425 489 36,000  Level FlightAware ADS-B
Fri 10:05:12 AM 45.2120 -62.0450 247° West 425 489 36,000  Level FlightAware ADS-B
Fri 10:05:52 AM 45.1860 -62.1330 247° West 425 489 36,000  Level FlightAware ADS-B
Fri 10:06:32 AM 45.1600 -62.2200 247° West 425 489 36,000  Level FlightAware ADS-B
Fri 10:07:22 AM 45.1270 -62.3290 247° West 425 489 36,000  Level FlightAware ADS-B
Fri 10:08:02 AM 45.1010 -62.4160 247° West 425 489 36,000  Level FlightAware ADS-B
Fri 10:08:42 AM 45.0750 -62.5030 247° West 425 489 36,000  Level FlightAware ADS-B
Fri 10:13:22 AM 44.7990 -63.4120 247° West 430 495 36,000  Level FlightAware ADS-B
Fri 10:14:22 AM 44.7550 -63.5530 246° West 431 496 36,000  Level FlightAware ADS-B
Fri 10:15:02 AM 44.7180 -63.6650 245° Southwest 432 497 36,000  Level FlightAware ADS-B
Fri 10:15:47 AM 44.6820 -63.7780 246° West 436 502 36,000  Level FlightAware ADS-B
Fri 10:16:27 AM 44.6480 -63.8840 246° West 439 505 36,000  Level FlightAware ADS-B
Fri 10:17:07 AM 44.6150 -63.9840 245° Southwest 439 505 36,000  Level FlightAware ADS-B
Fri 10:17:52 AM 44.5760 -64.1040 246° West 440 506 36,000  Level FlightAware ADS-B
Fri 10:18:32 AM 44.5420 -64.2080 245° Southwest 442 509 36,000  Level FlightAware ADS-B
Fri 10:19:12 AM 44.5090 -64.3100 246° West 445 512 36,000  Level FlightAware ADS-B
Fri 10:19:57 AM 44.4700 -64.4280 245° Southwest 446 513 36,000  Level FlightAware ADS-B
Fri 10:20:37 AM 44.4350 -64.5330 245° Southwest 449 517 36,000  Level FlightAware ADS-B
Fri 10:21:22 AM 44.3950 -64.6510 245° Southwest 452 520 36,000  Level FlightAware ADS-B
Fri 10:22:07 AM 44.3550 -64.7720 245° Southwest 453 521 36,000  Level FlightAware ADS-B
Fri 10:22:47 AM 44.3190 -64.8770 244° Southwest 455 524 36,000  Level FlightAware ADS-B
Fri 10:23:32 AM 44.2800 -64.9930 245° Southwest 458 527 36,000  Level FlightAware ADS-B
Fri 10:24:12 AM 44.2450 -65.0960 245° Southwest 458 527 36,000  Level FlightAware ADS-B
Fri 10:24:52 AM 44.2090 -65.2000 244° Southwest 457 526 36,000  Level FlightAware ADS-B
Fri 10:25:37 AM 44.1670 -65.3230 245° Southwest 457 526 36,000  Level FlightAware ADS-B
Fri 10:26:17 AM 44.1290 -65.4340 245° Southwest 456 525 36,000  Level FlightAware ADS-B
Fri 10:27:02 AM 44.0880 -65.5500 244° Southwest 455 524 36,000  Level FlightAware ADS-B
Fri 10:27:42 AM 44.0540 -65.6480 244° Southwest 456 525 36,000  Level FlightAware ADS-B
Fri 10:28:37 AM 44.0040 -65.7920 244° Southwest 455 524 36,000  Level FlightAware ADS-B
Fri 10:29:12 AM 43.9710 -65.8850 244° Southwest 458 527 36,000  Level FlightAware ADS-B
Fri 10:30:02 AM 43.9240 -66.0190 244° Southwest 459 528 36,000  Level FlightAware ADS-B
Fri 10:30:57 AM 43.8720 -66.1650 244° Southwest 468 539 36,000  Level FlightAware ADS-B
Fri 10:31:37 AM 43.8330 -66.2730 243° Southwest 471 542 36,000  Level FlightAware ADS-B
Fri 10:32:22 AM 43.7900 -66.3930 244° Southwest 474 545 36,000  Level FlightAware ADS-B
Fri 10:33:27 AM 43.7260 -66.5700 243° Southwest 475 547 36,000  Level FlightAware ADS-B
Fri 10:34:42 AM 43.6530 -66.7730 244° Southwest 476 548 36,000  Level FlightAware ADS-B
Fri 10:35:52 AM 43.5820 -66.9660 243° Southwest 475 547 36,000  Level FlightAware ADS-B
Fri 10:36:22 AM 43.5550 -67.0460 245° Southwest 471 542 36,000  Level FlightAware ADS-B
Fri 10:37:02 AM 43.5220 -67.1590 248° West 471 542 36,000  Level FlightAware ADS-B
Fri 10:37:42 AM 43.4900 -67.2700 248° West 471 542 36,000  Level FlightAware ADS-B
Fri 10:38:27 AM 43.4540 -67.3960 249° West 473 544 36,000  Level FlightAware ADS-B
Fri 10:39:22 AM 43.4100 -67.5490 248° West 475 547 36,000  Level FlightAware ADS-B
Fri 10:40:07 AM 43.3730 -67.6770 248° West 476 548 36,000  Level FlightAware ADS-B
Fri 10:40:47 AM 43.3400 -67.7900 248° West 476 548 36,000  Level FlightAware ADS-B
Fri 10:41:42 AM 43.2940 -67.9460 248° West 477 549 36,000  Level FlightAware ADS-B
Fri 10:42:17 AM 43.2680 -68.0340 248° West 477 549 36,000  Level FlightAware ADS-B
Fri 10:43:07 AM 43.2300 -68.1640 248° West 476 548 36,000  Level FlightAware ADS-B
Fri 10:43:47 AM 43.2020 -68.2590 248° West 476 548 36,000  Level FlightAware ADS-B
Fri 10:44:27 AM 43.1740 -68.3540 248° West 476 548 36,000  Level FlightAware ADS-B
Fri 10:45:12 AM 43.1220 -68.5270 248° West 475 547 36,000  Level FlightAware ADS-B
Fri 10:45:52 AM 43.0900 -68.6310 247° West 476 548 36,000  Level FlightAware ADS-B
Fri 10:46:37 AM 43.0530 -68.7530 247° West 473 544 36,000  Level FlightAware ADS-B
Fri 10:47:17 AM 43.0180 -68.8700 248° West 464 534 36,000  Level FlightAware ADS-B
Fri 10:48:12 AM 42.9730 -69.0200 248° West 462 532 36,000  Level FlightAware ADS-B
Fri 10:48:57 AM 42.9360 -69.1410 247° West 464 534 36,000  Level FlightAware ADS-B
Fri 10:49:32 AM 42.9100 -69.2250 247° West 466 536 36,000  Level FlightAware ADS-B
Fri 10:50:22 AM 42.8650 -69.3710 247° West 471 542 36,000  Level FlightAware ADS-B
Fri 10:50:57 AM 42.8360 -69.4660 247° West 469 540 36,000  Level FlightAware ADS-B
Fri 10:51:42 AM 42.7980 -69.5890 247° West 467 537 36,000  Level FlightAware ADS-B
Fri 10:52:27 AM 42.7590 -69.7120 247° West 467 537 36,000  Level FlightAware ADS-B
Fri 10:53:07 AM 42.7250 -69.8210 247° West 466 536 36,000  Level FlightAware ADS-B
Fri 10:53:52 AM 42.6880 -69.9410 247° West 464 534 36,000  Level FlightAware ADS-B
Fri 10:54:32 AM 42.6540 -70.0480 247° West 464 534 36,000  Level FlightAware ADS-B
Fri 10:55:12 AM 42.6200 -70.1560 247° West 456 525 36,000 -988 Level FlightAware ADS-B
Fri 10:55:57 AM 42.5830 -70.2710 246° West 443 510 34,600 -3,035 Descending FlightAware ADS-B
Fri 10:56:37 AM 42.5500 -70.3760 247° West 464 534 31,700 -4,125 Descending FlightAware ADS-B
Fri 10:57:17 AM 42.5150 -70.4840 246° West 479 551 29,100 -2,612 Descending FlightAware ADS-B
Fri 10:58:02 AM 42.4750 -70.6090 247° West 472 543 28,000 -776 Descending FlightAware ADS-B
Fri 10:58:42 AM 42.4400 -70.7160 246° West 479 551 28,000  Level FlightAware ADS-B
Fri 10:59:27 AM 42.4010 -70.8380 247° West 482 555 28,000  Level FlightAware ADS-B
Fri 11:00:07 AM 42.3660 -70.9460 246° West 480 552 28,000 -141 Level FlightAware ADS-B
Fri 11:00:52 AM 42.3290 -71.0760 249° West 471 542 27,800 -988 Descending FlightAware ADS-B
Fri 11:01:32 AM 42.3020 -71.1860 252° West 455 524 26,600 -2,325 Descending FlightAware ADS-B
Fri 11:02:12 AM 42.2780 -71.2910 253° West 446 513 24,700 -2,325 Descending FlightAware ADS-B
Fri 11:02:52 AM 42.2520 -71.4000 252° West 442 509 23,500 -1,976 Descending FlightAware ADS-B
Fri 11:03:37 AM 42.2220 -71.5260 252° West 423 487 21,900 -2,333 Descending FlightAware ADS-B
Fri 11:04:22 AM 42.1970 -71.6320 252° West 415 478 20,000 -2,541 Descending FlightAware ADS-B
Fri 11:05:02 AM 42.1730 -71.7320 252° West 404 465 18,300 -2,682 Descending FlightAware ADS-B
Fri 11:05:47 AM 42.1460 -71.8410 252° West 399 459 16,200 -1,453 Descending FlightAware ADS-B
Fri 11:06:37 AM 42.1190 -71.9520 252° West 395 455 16,000 -96 Descending FlightAware ADS-B
Fri 11:07:52 AM 42.0780 -72.1240 252° West 389 448 16,000  Level FlightAware ADS-B
Fri 11:08:47 AM 42.0470 -72.2500 252° West 391 450 16,000  Level FlightAware ADS-B
Fri 11:09:17 AM 42.0290 -72.3210 251° West 393 452 16,000  Level FlightAware ADS-B
Fri 11:10:27 AM 42.0110 -72.3940 252° West 393 452 16,000  Level FlightAware ADS-B
Fri 11:11:07 AM 41.9910 -72.4730 251° West 393 452 16,000  Level FlightAware ADS-B
Fri 11:11:47 AM 41.9700 -72.5510 250° West 393 452 16,000  Level FlightAware ADS-B
Fri 11:12:27 AM 41.9500 -72.6300 251° West 393 452 16,000  Level FlightAware ADS-B
Fri 11:13:07 AM 41.9300 -72.7080 251° West 393 452 16,000  Level FlightAware ADS-B
Fri 11:13:47 AM 41.9100 -72.7870 251° West 393 452 16,000  Level FlightAware ADS-B
Fri 11:16:07 AM 41.8040 -73.2620 253° West 388 447 16,000  Level FlightAware ADS-B
Fri 11:16:52 AM 41.7800 -73.3570 251° West 388 447 16,000  Level FlightAware ADS-B
Fri 11:17:32 AM 41.7620 -73.4350 253° West 388 447 16,000  Level FlightAware ADS-B
Fri 11:18:12 AM 41.7430 -73.5130 252° West 388 447 16,000 -1,920 Level FlightAware ADS-B
Fri 11:19:02 AM 41.7140 -73.6350 252° West 12,000 -2,824 Descending FlightAware ADS-B
Fri 11:19:37 AM 41.6950 -73.7180 253° West 365 420 12,000  Level FlightAware ADS-B
Fri 11:20:22 AM 41.6690 -73.8250 252° West 361 415 12,000 -67 Level FlightAware ADS-B
Fri 11:21:07 AM 41.6470 -73.9170 252° West 364 419 11,900 -52 Descending FlightAware ADS-B
Fri 11:22:17 AM 41.6130 -74.0670 253° West 368 423 11,900  Level FlightAware ADS-B
Fri 11:22:52 AM 41.5950 -74.1440 253° West 368 423 11,900  Level FlightAware ADS-B
Fri 11:23:32 AM 41.5730 -74.2360 252° West 365 420 11,900 -960 Level FlightAware ADS-B
Fri 11:24:32 AM 41.5440 -74.3600 253° West 368 423 10,300 -873 Descending FlightAware ADS-B
Fri 11:25:22 AM 41.5210 -74.4520 252° West 368 423 10,300  Level FlightAware ADS-B
Fri 11:26:02 AM 41.5040 -74.5260 253° West 368 423 10,300 -946 Level FlightAware ADS-B
Fri 11:31:17 AM 41.0860 -74.3270 160° South 226 260 4,700 -988 Descending FlightAware ADS-B
Fri 11:31:42 AM 41.0660 -74.3090 146° Southeast 226 260 4,700 -689 Level FlightAware ADS-B
Fri 11:32:18 AM 41.0305 -74.2771 146° Southeast 226 260 4,000 -824 Descending FlightAware ADS-B
Fri 11:32:33 AM 41.0172 -74.2653 146° Southeast 225 259 4,000  Level FlightAware ADS-B
Fri 11:32:50 AM 41.0022 -74.2520 146° Southeast 224 258 4,000 -171 Level FlightAware ADS-B
Fri 11:33:08 AM 40.9866 -74.2382 146° Southeast 223 257 3,900  Descending FlightAware ADS-B
Fri 11:33:26 AM 40.9711 -74.2244 146° Southeast 227 261 4,000  Climbing FlightAware ADS-B
Fri 11:33:45 AM 40.9553 -74.2103 146° Southeast 216 249 3,900 -171 Descending FlightAware ADS-B
Fri 11:34:01 AM 40.9425 -74.1990 146° Southeast 200 230 3,900 -364 Level FlightAware ADS-B
Fri 11:34:18 AM 40.9297 -74.1876 146° Southeast 188 216 3,700 -909 Descending FlightAware ADS-B
Fri 11:34:34 AM 40.9182 -74.1776 147° Southeast 186 214 3,400 -1,059 Descending FlightAware ADS-B
Fri 11:34:52 AM 40.9053 -74.1663 146° Southeast 185 213 3,100 -882 Descending FlightAware ADS-B
Fri 11:35:08 AM 40.8946 -74.1567 146° Southeast 186 214 2,900 -188 Descending FlightAware ADS-B
Fri 11:35:24 AM 40.8829 -74.1466 147° Southeast 191 220 3,000  Climbing FlightAware ADS-B
Fri 11:35:31 AM 40.8771 -74.1431 155° Southeast 190 219 2,900  Descending FlightAware ADS-B
Fri 11:35:39 AM 40.8708 -74.1400 160° South 188 216 3,000 250 Climbing FlightAware ADS-B
Fri 11:35:55 AM 40.8573 -74.1338 161° South 187 215 3,000  Level FlightAware ADS-B
Fri 11:36:02 AM 40.8514 -74.1312 162° South 187 215 3,000 -462 Level FlightAware ADS-B
Fri 11:36:08 AM 40.8462 -74.1295 166° South 187 215 2,900  Descending FlightAware ADS-B
Fri 11:36:14 AM 40.8415 -74.1293 178° South 184 212 3,000  Climbing FlightAware ADS-B
Fri 11:36:21 AM 40.8358 -74.1310 193° South 182 209 2,900 -600 Descending FlightAware ADS-B
Fri 11:36:24 AM 40.8332 -74.1325 204° Southwest 184 212 2,900 -1,000 Level FlightAware ADS-B
Fri 11:36:27 AM 40.8307 -74.1343 209° Southwest 184 212 2,800 -1,000 Descending FlightAware ADS-B
Fri 11:36:36 AM 40.8245 -74.1396 213° Southwest 185 213 2,700 -857 Descending FlightAware ADS-B
Fri 11:36:41 AM 40.8209 -74.1424 210° Southwest 184 212 2,600 -973 Descending FlightAware ADS-B
Fri 11:37:13 AM 40.7975 -74.1564 204° Southwest 167 192 2,100 -1,000 Descending FlightAware ADS-B
Fri 11:37:29 AM 40.7863 -74.1619 200° South 166 191 1,800 -1,000 Descending FlightAware ADS-B
Fri 11:37:43 AM 40.7764 -74.1665 199° South 163 188 1,600 -706 Descending FlightAware ADS-B
Fri 11:37:46 AM 40.7743 -74.1678 205° Southwest 162 186 1,600 -750 Level FlightAware ADS-B
Fri 11:37:59 AM 40.7655 -74.1733 205° Southwest 153 176 1,400 -1,000 Descending FlightAware ADS-B
Fri 11:38:04 AM 40.7626 -74.1754 209° Southwest 150 173 1,300 -923 Descending FlightAware ADS-B
Fri 11:38:12 AM 40.7578 -74.1789 209° Southwest 142 163 1,200 -783 Descending FlightAware ADS-B
Fri 11:38:27 AM 40.7491 -74.1849 208° Southwest 143 165 1,000 -750 Descending FlightAware ADS-B
Fri 11:38:36 AM 40.7437 -74.1884 206° Southwest 148 170 900 -581 Descending FlightAware ADS-B
Fri 11:38:58 AM 40.7304 -74.1967 205° Southwest 143 165 700 -762 Descending FlightAware ADS-B
Fri 11:39:39 AM 40.7061 -74.2127 207° Southwest 146 168 100 -878 Descending FlightAware ADS-B

Login

Don't have an account? Register now (free) for customized features, flight alerts, and more!